sensor_id;sensor_type;location;lat;lon;timestamp;temperature;humidity
8269;DHT22;4174;48.304;16.364;2024-02-14T00:04:59;5.50;99.90
8269;DHT22;4174;48.304;16.364;2024-02-14T00:11:03;5.60;99.90
8269;DHT22;4174;48.304;16.364;2024-02-14T00:17:07;5.70;99.90
8269;DHT22;4174;48.304;16.364;2024-02-14T00:23:10;5.70;99.90
8269;DHT22;4174;48.304;16.364;2024-02-14T00:29:14;5.80;99.90
8269;DHT22;4174;48.304;16.364;2024-02-14T00:35:18;5.80;99.90
8269;DHT22;4174;48.304;16.364;2024-02-14T00:41:22;5.70;99.90
8269;DHT22;4174;48.304;16.364;2024-02-14T00:47:26;5.70;99.90
8269;DHT22;4174;48.304;16.364;2024-02-14T00:53:30;5.80;99.90
8269;DHT22;4174;48.304;16.364;2024-02-14T00:59:33;5.70;99.90
8269;DHT22;4174;48.304;16.364;2024-02-14T01:05:37;5.70;99.90
8269;DHT22;4174;48.304;16.364;2024-02-14T01:11:41;5.60;99.90
8269;DHT22;4174;48.304;16.364;2024-02-14T01:17:45;5.60;99.90
8269;DHT22;4174;48.304;16.364;2024-02-14T01:23:49;5.40;99.90
8269;DHT22;4174;48.304;16.364;2024-02-14T01:29:52;5.40;99.90
8269;DHT22;4174;48.304;16.364;2024-02-14T01:35:56;5.30;99.90
8269;DHT22;4174;48.304;16.364;2024-02-14T01:41:59;5.20;99.90
8269;DHT22;4174;48.304;16.364;2024-02-14T01:48:05;4.80;99.90
8269;DHT22;4174;48.304;16.364;2024-02-14T01:54:09;4.80;99.90
8269;DHT22;4174;48.304;16.364;2024-02-14T02:00:13;4.60;99.90
8269;DHT22;4174;48.304;16.364;2024-02-14T02:06:17;4.70;99.90
8269;DHT22;4174;48.304;16.364;2024-02-14T02:12:21;4.50;99.90
8269;DHT22;4174;48.304;16.364;2024-02-14T02:18:26;4.50;99.90
8269;DHT22;4174;48.304;16.364;2024-02-14T02:24:31;4.50;99.90
8269;DHT22;4174;48.304;16.364;2024-02-14T02:30:35;4.40;99.90
8269;DHT22;4174;48.304;16.364;2024-02-14T02:36:39;4.30;99.90
8269;DHT22;4174;48.304;16.364;2024-02-14T02:42:42;4.10;99.90
8269;DHT22;4174;48.304;16.364;2024-02-14T02:48:45;3.80;99.90
8269;DHT22;4174;48.304;16.364;2024-02-14T02:54:49;3.80;99.90
8269;DHT22;4174;48.304;16.364;2024-02-14T03:00:53;3.50;99.90
8269;DHT22;4174;48.304;16.364;2024-02-14T03:06:57;3.70;99.90
8269;DHT22;4174;48.304;16.364;2024-02-14T03:13:00;3.70;99.90
8269;DHT22;4174;48.304;16.364;2024-02-14T03:19:04;3.70;99.90
8269;DHT22;4174;48.304;16.364;2024-02-14T03:25:09;3.60;99.90
8269;DHT22;4174;48.304;16.364;2024-02-14T03:31:14;3.60;99.90
8269;DHT22;4174;48.304;16.364;2024-02-14T03:37:18;3.40;99.90
8269;DHT22;4174;48.304;16.364;2024-02-14T03:43:22;3.40;99.90
8269;DHT22;4174;48.304;16.364;2024-02-14T03:49:27;3.30;99.90
8269;DHT22;4174;48.304;16.364;2024-02-14T03:55:31;3.40;99.90
8269;DHT22;4174;48.304;16.364;2024-02-14T04:01:35;3.50;99.90
8269;DHT22;4174;48.304;16.364;2024-02-14T04:07:39;3.30;99.90
8269;DHT22;4174;48.304;16.364;2024-02-14T04:13:44;3.30;99.90
8269;DHT22;4174;48.304;16.364;2024-02-14T04:19:47;3.30;99.90
8269;DHT22;4174;48.304;16.364;2024-02-14T04:25:51;3.10;99.90
8269;DHT22;4174;48.304;16.364;2024-02-14T04:31:56;3.00;99.90
8269;DHT22;4174;48.304;16.364;2024-02-14T04:37:58;3.00;99.90
8269;DHT22;4174;48.304;16.364;2024-02-14T04:44:01;3.20;99.90
8269;DHT22;4174;48.304;16.364;2024-02-14T04:50:07;3.10;99.90
8269;DHT22;4174;48.304;16.364;2024-02-14T04:56:12;3.10;99.90
8269;DHT22;4174;48.304;16.364;2024-02-14T05:02:16;3.10;99.90
8269;DHT22;4174;48.304;16.364;2024-02-14T05:08:19;2.90;99.90
8269;DHT22;4174;48.304;16.364;2024-02-14T05:14:24;2.90;99.90
8269;DHT22;4174;48.304;16.364;2024-02-14T05:20:28;2.70;99.90
8269;DHT22;4174;48.304;16.364;2024-02-14T05:26:31;2.90;99.90
8269;DHT22;4174;48.304;16.364;2024-02-14T05:32:34;2.70;99.90
8269;DHT22;4174;48.304;16.364;2024-02-14T05:38:37;2.40;99.90
8269;DHT22;4174;48.304;16.364;2024-02-14T05:44:41;2.30;99.90
8269;DHT22;4174;48.304;16.364;2024-02-14T05:50:43;2.70;99.90
8269;DHT22;4174;48.304;16.364;2024-02-14T05:56:48;3.00;99.90
8269;DHT22;4174;48.304;16.364;2024-02-14T06:02:51;3.20;99.90
8269;DHT22;4174;48.304;16.364;2024-02-14T06:08:55;3.50;99.90
8269;DHT22;4174;48.304;16.364;2024-02-14T06:14:59;3.50;99.90
8269;DHT22;4174;48.304;16.364;2024-02-14T06:21:02;3.60;99.90
8269;DHT22;4174;48.304;16.364;2024-02-14T06:27:07;3.70;99.90
8269;DHT22;4174;48.304;16.364;2024-02-14T06:33:11;3.50;99.90
8269;DHT22;4174;48.304;16.364;2024-02-14T06:39:14;3.60;99.90
8269;DHT22;4174;48.304;16.364;2024-02-14T06:45:18;3.70;99.90
8269;DHT22;4174;48.304;16.364;2024-02-14T06:51:22;4.10;99.90
8269;DHT22;4174;48.304;16.364;2024-02-14T06:57:25;4.30;99.90
8269;DHT22;4174;48.304;16.364;2024-02-14T07:03:27;4.60;99.90
8269;DHT22;4174;48.304;16.364;2024-02-14T07:09:31;4.70;99.90
8269;DHT22;4174;48.304;16.364;2024-02-14T07:15:34;4.90;99.90
8269;DHT22;4174;48.304;16.364;2024-02-14T07:21:38;5.20;99.90
8269;DHT22;4174;48.304;16.364;2024-02-14T07:27:42;5.40;99.90
8269;DHT22;4174;48.304;16.364;2024-02-14T07:33:46;6.00;99.90
8269;DHT22;4174;48.304;16.364;2024-02-14T07:39:50;6.00;99.90
8269;DHT22;4174;48.304;16.364;2024-02-14T07:45:53;6.50;99.90
8269;DHT22;4174;48.304;16.364;2024-02-14T07:51:57;7.00;99.90
8269;DHT22;4174;48.304;16.364;2024-02-14T07:58:01;7.50;99.90
8269;DHT22;4174;48.304;16.364;2024-02-14T08:04:05;7.80;99.90
8269;DHT22;4174;48.304;16.364;2024-02-14T08:10:09;7.80;99.90
8269;DHT22;4174;48.304;16.364;2024-02-14T08:16:13;7.70;99.90
8269;DHT22;4174;48.304;16.364;2024-02-14T08:22:17;7.50;99.90
8269;DHT22;4174;48.304;16.364;2024-02-14T08:28:22;7.70;99.90
8269;DHT22;4174;48.304;16.364;2024-02-14T08:34:25;7.70;99.90
8269;DHT22;4174;48.304;16.364;2024-02-14T08:40:29;7.50;99.90
8269;DHT22;4174;48.304;16.364;2024-02-14T08:46:34;10.10;99.90
8269;DHT22;4174;48.304;16.364;2024-02-14T08:52:37;10.00;99.90
8269;DHT22;4174;48.304;16.364;2024-02-14T08:58:42;12.30;99.90
8269;DHT22;4174;48.304;16.364;2024-02-14T09:04:46;13.90;99.90
8269;DHT22;4174;48.304;16.364;2024-02-14T09:10:50;14.90;94.40
8269;DHT22;4174;48.304;16.364;2024-02-14T09:16:53;15.60;90.90
8269;DHT22;4174;48.304;16.364;2024-02-14T09:22:57;17.10;84.00
8269;DHT22;4174;48.304;16.364;2024-02-14T09:29:01;17.00;83.70
8269;DHT22;4174;48.304;16.364;2024-02-14T09:35:07;17.80;78.80
8269;DHT22;4174;48.304;16.364;2024-02-14T09:41:14;18.40;75.50
8269;DHT22;4174;48.304;16.364;2024-02-14T09:47:14;19.10;66.60
8269;DHT22;4174;48.304;16.364;2024-02-14T09:53:17;19.40;59.70
8269;DHT22;4174;48.304;16.364;2024-02-14T09:59:21;19.40;61.00
8269;DHT22;4174;48.304;16.364;2024-02-14T10:05:26;19.40;58.20
8269;DHT22;4174;48.304;16.364;2024-02-14T10:11:30;18.80;57.80
8269;DHT22;4174;48.304;16.364;2024-02-14T10:17:34;19.10;59.00
8269;DHT22;4174;48.304;16.364;2024-02-14T10:23:39;18.90;58.50
8269;DHT22;4174;48.304;16.364;2024-02-14T10:29:41;19.20;58.30
8269;DHT22;4174;48.304;16.364;2024-02-14T10:35:44;19.00;55.30
8269;DHT22;4174;48.304;16.364;2024-02-14T10:41:47;18.80;57.50
8269;DHT22;4174;48.304;16.364;2024-02-14T10:47:51;16.30;59.20
8269;DHT22;4174;48.304;16.364;2024-02-14T10:53:55;17.60;62.40
8269;DHT22;4174;48.304;16.364;2024-02-14T10:59:59;17.60;62.30
8269;DHT22;4174;48.304;16.364;2024-02-14T11:06:01;18.50;58.60
8269;DHT22;4174;48.304;16.364;2024-02-14T11:12:07;19.20;53.90
8269;DHT22;4174;48.304;16.364;2024-02-14T11:18:10;20.00;56.40
8269;DHT22;4174;48.304;16.364;2024-02-14T11:24:14;20.20;52.90
8269;DHT22;4174;48.304;16.364;2024-02-14T11:30:26;20.80;54.00
8269;DHT22;4174;48.304;16.364;2024-02-14T11:36:32;21.30;51.60
8269;DHT22;4174;48.304;16.364;2024-02-14T11:42:35;21.40;48.90
8269;DHT22;4174;48.304;16.364;2024-02-14T11:48:41;21.50;50.00
8269;DHT22;4174;48.304;16.364;2024-02-14T11:54:46;21.60;48.80
8269;DHT22;4174;48.304;16.364;2024-02-14T12:00:50;20.20;48.10
8269;DHT22;4174;48.304;16.364;2024-02-14T12:06:53;20.20;48.10
8269;DHT22;4174;48.304;16.364;2024-02-14T12:12:57;19.00;50.50
8269;DHT22;4174;48.304;16.364;2024-02-14T12:19:05;18.10;54.00
8269;DHT22;4174;48.304;16.364;2024-02-14T12:25:11;17.30;58.70
8269;DHT22;4174;48.304;16.364;2024-02-14T12:31:21;16.80;60.60
8269;DHT22;4174;48.304;16.364;2024-02-14T12:37:17;15.90;62.60
8269;DHT22;4174;48.304;16.364;2024-02-14T12:43:21;15.90;66.40
8269;DHT22;4174;48.304;16.364;2024-02-14T12:49:25;15.90;65.30
8269;DHT22;4174;48.304;16.364;2024-02-14T12:55:29;15.30;70.30
8269;DHT22;4174;48.304;16.364;2024-02-14T13:01:33;15.30;70.90
8269;DHT22;4174;48.304;16.364;2024-02-14T13:07:37;15.70;76.20
8269;DHT22;4174;48.304;16.364;2024-02-14T13:13:41;16.70;71.50
8269;DHT22;4174;48.304;16.364;2024-02-14T13:19:45;16.80;65.10
8269;DHT22;4174;48.304;16.364;2024-02-14T13:25:49;16.30;58.70
8269;DHT22;4174;48.304;16.364;2024-02-14T13:31:52;15.80;59.80
8269;DHT22;4174;48.304;16.364;2024-02-14T13:37:56;15.20;61.80
8269;DHT22;4174;48.304;16.364;2024-02-14T13:44:00;14.70;65.30
8269;DHT22;4174;48.304;16.364;2024-02-14T13:50:05;14.60;65.10
8269;DHT22;4174;48.304;16.364;2024-02-14T13:56:08;14.40;70.00
8269;DHT22;4174;48.304;16.364;2024-02-14T14:02:11;14.40;69.90
8269;DHT22;4174;48.304;16.364;2024-02-14T14:08:16;14.40;69.80
8269;DHT22;4174;48.304;16.364;2024-02-14T14:14:20;14.10;71.00
8269;DHT22;4174;48.304;16.364;2024-02-14T14:20:24;14.00;71.00
8269;DHT22;4174;48.304;16.364;2024-02-14T14:26:28;14.50;70.60
8269;DHT22;4174;48.304;16.364;2024-02-14T14:32:32;14.80;67.50
8269;DHT22;4174;48.304;16.364;2024-02-14T14:38:35;14.40;67.40
8269;DHT22;4174;48.304;16.364;2024-02-14T14:44:40;14.00;67.20
8269;DHT22;4174;48.304;16.364;2024-02-14T14:50:44;13.80;70.30
8269;DHT22;4174;48.304;16.364;2024-02-14T14:56:47;13.60;71.20
8269;DHT22;4174;48.304;16.364;2024-02-14T15:02:51;13.90;70.70
8269;DHT22;4174;48.304;16.364;2024-02-14T15:08:54;13.90;70.70
8269;DHT22;4174;48.304;16.364;2024-02-14T15:14:59;13.90;73.40
8269;DHT22;4174;48.304;16.364;2024-02-14T15:21:03;13.70;70.80
8269;DHT22;4174;48.304;16.364;2024-02-14T15:27:07;13.60;72.40
8269;DHT22;4174;48.304;16.364;2024-02-14T15:33:11;13.60;73.00
8269;DHT22;4174;48.304;16.364;2024-02-14T15:39:21;13.60;76.00
8269;DHT22;4174;48.304;16.364;2024-02-14T15:45:25;13.60;74.80
8269;DHT22;4174;48.304;16.364;2024-02-14T15:51:29;12.90;77.70
8269;DHT22;4174;48.304;16.364;2024-02-14T15:57:34;12.90;77.70
8269;DHT22;4174;48.304;16.364;2024-02-14T16:03:37;12.40;76.50
8269;DHT22;4174;48.304;16.364;2024-02-14T16:09:41;12.40;77.90
8269;DHT22;4174;48.304;16.364;2024-02-14T16:15:45;12.30;78.90
8269;DHT22;4174;48.304;16.364;2024-02-14T16:21:48;12.60;79.60
8269;DHT22;4174;48.304;16.364;2024-02-14T16:27:52;12.70;79.60
8269;DHT22;4174;48.304;16.364;2024-02-14T16:33:56;12.30;79.20
8269;DHT22;4174;48.304;16.364;2024-02-14T16:39:59;12.20;80.60
8269;DHT22;4174;48.304;16.364;2024-02-14T16:46:03;12.20;85.80
8269;DHT22;4174;48.304;16.364;2024-02-14T16:52:08;12.30;87.20
8269;DHT22;4174;48.304;16.364;2024-02-14T16:58:11;12.10;84.40
8269;DHT22;4174;48.304;16.364;2024-02-14T17:04:15;12.40;87.30
8269;DHT22;4174;48.304;16.364;2024-02-14T17:10:22;12.60;88.20
8269;DHT22;4174;48.304;16.364;2024-02-14T17:16:25;12.70;89.10
8269;DHT22;4174;48.304;16.364;2024-02-14T17:22:28;12.80;87.90
8269;DHT22;4174;48.304;16.364;2024-02-14T17:28:32;12.70;87.50
8269;DHT22;4174;48.304;16.364;2024-02-14T17:34:35;12.30;89.90
8269;DHT22;4174;48.304;16.364;2024-02-14T17:40:39;12.20;89.90
8269;DHT22;4174;48.304;16.364;2024-02-14T17:46:42;12.20;90.30
8269;DHT22;4174;48.304;16.364;2024-02-14T17:52:46;12.30;90.70
8269;DHT22;4174;48.304;16.364;2024-02-14T17:58:50;12.60;90.70
8269;DHT22;4174;48.304;16.364;2024-02-14T18:04:53;12.80;90.20
8269;DHT22;4174;48.304;16.364;2024-02-14T18:10:56;13.00;90.30
8269;DHT22;4174;48.304;16.364;2024-02-14T18:17:00;12.70;91.60
8269;DHT22;4174;48.304;16.364;2024-02-14T18:23:03;12.20;90.90
8269;DHT22;4174;48.304;16.364;2024-02-14T18:29:06;12.30;91.30
8269;DHT22;4174;48.304;16.364;2024-02-14T18:35:10;12.20;91.90
8269;DHT22;4174;48.304;16.364;2024-02-14T18:41:13;12.10;93.30
8269;DHT22;4174;48.304;16.364;2024-02-14T18:47:17;12.20;93.10
8269;DHT22;4174;48.304;16.364;2024-02-14T18:53:21;12.30;93.00
8269;DHT22;4174;48.304;16.364;2024-02-14T18:59:25;12.50;93.00
8269;DHT22;4174;48.304;16.364;2024-02-14T19:05:29;12.60;92.20
8269;DHT22;4174;48.304;16.364;2024-02-14T19:11:32;12.60;92.40
8269;DHT22;4174;48.304;16.364;2024-02-14T19:17:36;12.80;92.30
8269;DHT22;4174;48.304;16.364;2024-02-14T19:23:39;12.60;92.30
8269;DHT22;4174;48.304;16.364;2024-02-14T19:29:42;12.90;93.20
8269;DHT22;4174;48.304;16.364;2024-02-14T19:35:45;13.10;92.50
8269;DHT22;4174;48.304;16.364;2024-02-14T19:41:49;12.80;93.10
8269;DHT22;4174;48.304;16.364;2024-02-14T19:47:52;12.80;93.90
8269;DHT22;4174;48.304;16.364;2024-02-14T19:53:56;12.40;94.70
8269;DHT22;4174;48.304;16.364;2024-02-14T19:59:59;12.70;94.10
8269;DHT22;4174;48.304;16.364;2024-02-14T20:06:04;12.70;94.80
8269;DHT22;4174;48.304;16.364;2024-02-14T20:12:07;12.80;95.20
8269;DHT22;4174;48.304;16.364;2024-02-14T20:18:11;12.70;96.10
8269;DHT22;4174;48.304;16.364;2024-02-14T20:24:15;12.30;97.70
8269;DHT22;4174;48.304;16.364;2024-02-14T20:30:19;12.60;97.90
8269;DHT22;4174;48.304;16.364;2024-02-14T20:36:24;12.80;99.20
8269;DHT22;4174;48.304;16.364;2024-02-14T20:42:27;12.70;99.40
8269;DHT22;4174;48.304;16.364;2024-02-14T20:48:31;12.70;99.60
8269;DHT22;4174;48.304;16.364;2024-02-14T20:54:35;12.90;99.90
8269;DHT22;4174;48.304;16.364;2024-02-14T21:00:39;12.80;99.30
8269;DHT22;4174;48.304;16.364;2024-02-14T21:06:43;12.90;98.90
8269;DHT22;4174;48.304;16.364;2024-02-14T21:12:47;12.90;99.60
8269;DHT22;4174;48.304;16.364;2024-02-14T21:18:51;12.90;99.90
8269;DHT22;4174;48.304;16.364;2024-02-14T21:24:54;12.80;99.90
8269;DHT22;4174;48.304;16.364;2024-02-14T21:30:58;12.80;99.80
8269;DHT22;4174;48.304;16.364;2024-02-14T21:37:02;12.90;99.80
8269;DHT22;4174;48.304;16.364;2024-02-14T21:43:06;12.90;99.00
8269;DHT22;4174;48.304;16.364;2024-02-14T21:49:09;12.90;99.00
8269;DHT22;4174;48.304;16.364;2024-02-14T21:55:14;12.70;99.80
8269;DHT22;4174;48.304;16.364;2024-02-14T22:01:17;12.70;99.80
8269;DHT22;4174;48.304;16.364;2024-02-14T22:07:20;12.70;99.60
8269;DHT22;4174;48.304;16.364;2024-02-14T22:13:24;12.80;99.90
8269;DHT22;4174;48.304;16.364;2024-02-14T22:19:28;12.70;99.90
8269;DHT22;4174;48.304;16.364;2024-02-14T22:25:32;12.40;99.90
8269;DHT22;4174;48.304;16.364;2024-02-14T22:31:37;12.50;99.90
8269;DHT22;4174;48.304;16.364;2024-02-14T22:37:41;12.40;99.90
8269;DHT22;4174;48.304;16.364;2024-02-14T22:43:44;12.30;99.90
8269;DHT22;4174;48.304;16.364;2024-02-14T22:49:48;12.30;99.90
8269;DHT22;4174;48.304;16.364;2024-02-14T22:55:52;12.30;99.90
8269;DHT22;4174;48.304;16.364;2024-02-14T23:01:56;12.10;99.90
8269;DHT22;4174;48.304;16.364;2024-02-14T23:08:00;12.10;99.90
8269;DHT22;4174;48.304;16.364;2024-02-14T23:14:03;12.10;99.90
8269;DHT22;4174;48.304;16.364;2024-02-14T23:20:07;12.30;99.90
8269;DHT22;4174;48.304;16.364;2024-02-14T23:26:11;12.20;99.90
8269;DHT22;4174;48.304;16.364;2024-02-14T23:32:15;12.20;99.90
8269;DHT22;4174;48.304;16.364;2024-02-14T23:38:19;11.90;99.90
8269;DHT22;4174;48.304;16.364;2024-02-14T23:44:22;11.20;99.90
8269;DHT22;4174;48.304;16.364;2024-02-14T23:50:28;11.50;99.90
8269;DHT22;4174;48.304;16.364;2024-02-14T23:56:32;11.50;99.90
